Portada
METAR-TAF:

METAR-TAF

Aeropuertos :

Aeropuerto de Gibraltar

Gibraltar, Gibraltar

latitud: 36-09N, longitud: 005-21W, altitud: 5 m

Observación

El informe se hizo hace 16 minutos, a las 10:50 UTC
Viento 7 kt del este
Temperatura 21°C
Humedad 60%
Presión 1016 hPa
Visibilidad 10 km o más
sin nubes por debajo de 1500 m y sin presencia de cumulonimbus.

METAR: LXGB 231050Z 09007KT CAVOK 21/13 Q1016 NOSIG

Hora: 13:06 (11:06 UTC)

Pronóstico

El informe se hizo hace 3 horas y 18 minutos, a las 07:48 UTC
Pronóstico válido del 23 a las 09 UTC al 23 a las 18 UTC
Viento 8 kt del este
Visibilidad 10 km o más
Escasas nubes a una altura de 700 ft

TAF: LXGB 230748Z 2309/2318 09008KT 9999 FEW007

Observaciones y pronósticos meteorológicos de más de 4000 aeropuertos (mensajes METAR y TAF).

Los puntos amarillos y rojos representan las estaciones disponibles.

Ponga el ratón en el punto deseado para ver el nombre de la estación.

Haga clic para ver las observaciones y los pronósticos meteorológicos.

Para cambiar el mapa : haga clic en los botones verdes con una cruz de color negro para hacer un zoom, en el botón verde con un guión para alejar o en las flechas verdes para mapas adyacentes.


METAR-TAF: